createdAt,value
2024-02-20T00:00:07.994Z,7.77
2024-02-20T00:02:35.345Z,7.79
2024-02-20T00:05:06.170Z,7.77
2024-02-20T00:07:33.664Z,7.76
2024-02-20T00:10:02.057Z,7.77
2024-02-20T00:12:31.130Z,7.75
2024-02-20T00:15:00.435Z,7.73
2024-02-20T00:17:29.330Z,7.78
2024-02-20T00:19:56.553Z,7.80
2024-02-20T00:22:25.336Z,7.82
2024-02-20T00:24:53.075Z,7.87
2024-02-20T00:27:20.249Z,7.86
2024-02-20T00:29:47.921Z,7.88
2024-02-20T00:32:14.955Z,7.84
2024-02-20T00:34:42.203Z,7.89
2024-02-20T00:37:11.013Z,7.87
2024-02-20T00:39:39.925Z,7.87
2024-02-20T00:42:08.363Z,7.88
2024-02-20T00:44:35.822Z,7.93
2024-02-20T00:47:10.252Z,7.98
2024-02-20T00:49:38.726Z,7.97
2024-02-20T00:52:09.034Z,7.99
2024-02-20T00:54:43.191Z,7.97
2024-02-20T00:57:11.544Z,8.03
2024-02-20T00:59:39.208Z,8.04
2024-02-20T01:02:12.887Z,8.12
2024-02-20T01:04:41.132Z,8.15
2024-02-20T01:07:08.705Z,8.18
2024-02-20T01:09:36.252Z,8.19
2024-02-20T01:12:05.776Z,8.25
2024-02-20T01:14:33.400Z,8.26
2024-02-20T01:17:00.540Z,8.28
2024-02-20T01:19:27.788Z,8.25
2024-02-20T01:21:55.128Z,8.26
2024-02-20T01:24:23.487Z,8.30
2024-02-20T01:26:50.652Z,8.29
2024-02-20T01:29:23.176Z,8.30
2024-02-20T01:31:54.599Z,8.29
2024-02-20T01:34:22.547Z,8.36
2024-02-20T01:36:50.540Z,8.37
2024-02-20T01:39:17.919Z,8.40
2024-02-20T01:41:48.332Z,8.39
2024-02-20T01:44:15.508Z,8.39
2024-02-20T01:46:44.273Z,8.45
2024-02-20T01:49:11.671Z,8.46
2024-02-20T01:51:40.294Z,8.45
2024-02-20T01:54:10.741Z,8.52
2024-02-20T01:56:40.103Z,8.56
2024-02-20T01:59:07.595Z,8.58
2024-02-20T02:01:34.851Z,8.65
2024-02-20T02:04:03.696Z,8.60
2024-02-20T02:06:32.020Z,8.64
2024-02-20T02:08:59.213Z,8.65
2024-02-20T02:11:26.507Z,8.64
2024-02-20T02:13:53.884Z,8.63
2024-02-20T02:16:20.981Z,8.69
2024-02-20T02:18:48.571Z,8.68
2024-02-20T02:21:17.462Z,8.69
2024-02-20T02:23:44.551Z,8.69
2024-02-20T02:26:13.295Z,8.68
2024-02-20T02:28:43.522Z,8.66
2024-02-20T02:31:10.895Z,8.64
2024-02-20T02:33:38.191Z,8.71
2024-02-20T02:36:06.097Z,8.75
2024-02-20T02:38:33.224Z,8.75
2024-02-20T02:41:04.473Z,8.79
2024-02-20T02:43:33.938Z,8.76
2024-02-20T02:46:01.183Z,8.70
2024-02-20T02:48:28.470Z,8.77
2024-02-20T02:50:55.445Z,8.75
2024-02-20T02:53:23.329Z,8.72
2024-02-20T02:55:50.457Z,8.77
2024-02-20T02:58:17.576Z,8.73
2024-02-20T03:00:47.142Z,8.80
2024-02-20T03:03:14.717Z,8.74
2024-02-20T03:05:41.939Z,8.72
2024-02-20T03:08:12.027Z,8.69
2024-02-20T03:10:39.330Z,8.66
2024-02-20T03:13:06.685Z,8.70
2024-02-20T03:15:36.498Z,8.71
2024-02-20T03:18:07.948Z,8.71
2024-02-20T03:20:35.341Z,8.70
2024-02-20T03:23:02.536Z,8.70
2024-02-20T03:25:29.798Z,8.66
2024-02-20T03:27:58.484Z,8.63
2024-02-20T03:30:26.837Z,8.70
2024-02-20T03:32:54.000Z,8.68
2024-02-20T03:35:24.703Z,8.62
2024-02-20T03:37:52.078Z,8.70
2024-02-20T03:40:20.567Z,8.62
2024-02-20T03:42:47.893Z,8.67
2024-02-20T03:45:16.488Z,8.65
2024-02-20T03:47:43.930Z,8.66
2024-02-20T03:50:11.409Z,8.64
2024-02-20T03:52:42.223Z,8.63
2024-02-20T03:55:09.660Z,8.66
2024-02-20T03:57:36.866Z,8.68
2024-02-20T04:00:12.925Z,8.66
2024-02-20T04:02:44.021Z,8.67
2024-02-20T04:05:20.047Z,8.63
2024-02-20T04:07:49.910Z,8.67
2024-02-20T04:10:18.588Z,8.59
2024-02-20T04:12:45.949Z,8.66
2024-02-20T04:15:14.498Z,8.69
2024-02-20T04:17:41.796Z,8.65
2024-02-20T04:20:12.791Z,8.66
2024-02-20T04:22:40.621Z,8.73
2024-02-20T04:25:09.751Z,8.74
2024-02-20T04:27:51.728Z,8.71
2024-02-20T04:30:21.443Z,8.65
2024-02-20T04:32:48.697Z,8.60
2024-02-20T04:35:16.165Z,8.72
2024-02-20T04:37:44.302Z,8.70
2024-02-20T04:40:13.467Z,8.73
2024-02-20T04:42:40.478Z,8.61
2024-02-20T04:45:08.337Z,8.70
2024-02-20T04:47:37.821Z,8.61
2024-02-20T04:50:07.199Z,8.71
2024-02-20T04:52:34.577Z,8.65
2024-02-20T04:55:04.615Z,8.61
2024-02-20T04:57:33.593Z,8.67
2024-02-20T05:00:00.774Z,8.70
2024-02-20T05:02:27.981Z,8.72
2024-02-20T05:04:57.058Z,8.69
2024-02-20T05:07:24.966Z,8.70
2024-02-20T05:09:54.645Z,8.68
2024-02-20T05:12:21.908Z,8.66
2024-02-20T05:14:50.604Z,8.63
2024-02-20T05:17:17.876Z,8.62
2024-02-20T05:19:44.987Z,8.63
2024-02-20T05:22:13.357Z,8.59
2024-02-20T05:24:42.653Z,8.56
2024-02-20T05:27:10.282Z,8.52
2024-02-20T05:29:37.194Z,8.48
2024-02-20T05:32:07.355Z,8.43
2024-02-20T05:34:35.239Z,8.48
2024-02-20T05:37:02.377Z,8.43
2024-02-20T05:39:30.643Z,8.42
2024-02-20T05:41:57.958Z,8.33
2024-02-20T05:44:25.289Z,8.23
2024-02-20T05:46:52.795Z,8.18
2024-02-20T05:49:21.676Z,8.14
2024-02-20T05:51:49.353Z,8.18
2024-02-20T05:54:16.396Z,8.13
2024-02-20T05:56:44.898Z,8.14
2024-02-20T05:59:12.407Z,8.14
2024-02-20T06:01:39.514Z,8.18
2024-02-20T06:04:08.183Z,8.14
2024-02-20T06:06:39.501Z,8.10
2024-02-20T06:09:06.761Z,8.10
2024-02-20T06:11:36.072Z,8.07
2024-02-20T06:14:04.487Z,8.08
2024-02-20T06:16:31.793Z,8.08
2024-02-20T06:18:58.914Z,8.04
2024-02-20T06:21:26.730Z,8.01
2024-02-20T06:23:55.778Z,8.08
2024-02-20T06:26:24.130Z,8.01
2024-02-20T06:28:52.333Z,8.03
2024-02-20T06:31:19.666Z,8.08
2024-02-20T06:33:46.823Z,8.03
2024-02-20T06:36:14.511Z,8.02
2024-02-20T06:38:42.169Z,8.07
2024-02-20T06:41:11.198Z,8.05
2024-02-20T06:43:38.699Z,8.05
2024-02-20T06:46:06.073Z,8.02
2024-02-20T06:48:33.628Z,8.03
2024-02-20T06:51:01.078Z,8.06
2024-02-20T06:53:28.295Z,8.06
2024-02-20T06:55:57.998Z,8.04
2024-02-20T06:58:28.076Z,8.14
2024-02-20T07:00:55.719Z,8.11
2024-02-20T07:03:22.994Z,8.08
2024-02-20T07:05:50.230Z,8.18
2024-02-20T07:08:19.180Z,8.16
2024-02-20T07:10:47.028Z,8.06
2024-02-20T07:13:14.496Z,8.06
2024-02-20T07:15:44.261Z,8.08
2024-02-20T07:18:13.916Z,8.08
2024-02-20T07:20:41.156Z,8.04
2024-02-20T07:23:08.607Z,8.15
2024-02-20T07:25:37.781Z,8.14
2024-02-20T07:28:07.334Z,8.21
2024-02-20T07:30:34.633Z,8.20
2024-02-20T07:33:05.847Z,8.14
2024-02-20T07:35:33.236Z,8.26
2024-02-20T07:38:00.270Z,8.38
2024-02-20T07:40:27.999Z,8.37
2024-02-20T07:42:55.224Z,8.36
2024-02-20T07:45:22.534Z,8.52
2024-02-20T07:47:50.247Z,8.60
2024-02-20T07:50:23.246Z,8.47
2024-02-20T07:52:52.764Z,8.53
2024-02-20T07:55:20.081Z,8.60
2024-02-20T07:57:48.215Z,8.43
2024-02-20T08:00:15.298Z,8.67
2024-02-20T08:02:42.783Z,8.68
2024-02-20T08:05:15.521Z,8.70
2024-02-20T08:07:44.317Z,8.87
2024-02-20T08:10:13.444Z,8.98
2024-02-20T08:12:44.856Z,8.94
2024-02-20T08:15:12.513Z,8.84
2024-02-20T08:17:39.878Z,8.80
2024-02-20T08:20:08.363Z,9.10
2024-02-20T08:22:35.489Z,9.09
2024-02-20T08:25:05.624Z,9.09
2024-02-20T08:27:32.983Z,9.10
2024-02-20T08:30:00.962Z,8.93
2024-02-20T08:32:27.994Z,9.07
2024-02-20T08:34:55.286Z,9.00
2024-02-20T08:37:22.636Z,9.27
2024-02-20T08:39:52.742Z,9.16
2024-02-20T08:42:22.185Z,9.25
2024-02-20T08:44:49.209Z,9.15
2024-02-20T08:47:16.837Z,9.16
2024-02-20T08:49:46.438Z,9.12
2024-02-20T08:52:13.889Z,9.16
2024-02-20T08:54:41.869Z,9.02
2024-02-20T08:57:09.315Z,9.21
2024-02-20T08:59:38.351Z,9.14
2024-02-20T09:02:05.592Z,9.28
2024-02-20T09:04:33.773Z,9.32
2024-02-20T09:07:03.745Z,9.36
2024-02-20T09:09:32.619Z,9.31
2024-02-20T09:12:03.066Z,9.58
2024-02-20T09:14:30.926Z,9.59
2024-02-20T09:16:59.989Z,9.68
2024-02-20T09:19:27.524Z,9.81
2024-02-20T09:21:54.845Z,10.02
2024-02-20T09:24:22.230Z,9.94
2024-02-20T09:26:49.802Z,10.04
2024-02-20T09:29:19.766Z,10.05
2024-02-20T09:31:47.157Z,10.26
2024-02-20T09:34:16.753Z,10.51
2024-02-20T09:36:44.065Z,10.56
2024-02-20T09:39:11.935Z,10.31
2024-02-20T09:41:40.431Z,10.39
2024-02-20T09:44:09.528Z,10.44
2024-02-20T09:46:48.423Z,10.30
2024-02-20T09:49:18.973Z,10.26
2024-02-20T09:51:48.034Z,10.27
2024-02-20T09:54:15.849Z,10.36
2024-02-20T09:56:43.834Z,10.45
2024-02-20T09:59:15.196Z,10.50
2024-02-20T10:01:42.870Z,10.27
2024-02-20T10:04:11.988Z,10.27
2024-02-20T10:06:41.110Z,10.33
2024-02-20T10:09:10.090Z,10.09
2024-02-20T10:11:37.784Z,10.21
2024-02-20T10:14:05.274Z,10.42
2024-02-20T10:16:32.725Z,10.40
2024-02-20T10:19:01.449Z,10.27
2024-02-20T10:21:30.049Z,10.42
2024-02-20T10:24:11.588Z,10.55
2024-02-20T10:26:46.048Z,10.32
2024-02-20T10:29:15.070Z,10.58
2024-02-20T10:31:44.689Z,10.61
2024-02-20T10:34:14.977Z,10.64
2024-02-20T10:36:45.025Z,10.58
2024-02-20T10:39:14.425Z,10.70
2024-02-20T10:41:42.644Z,10.72
2024-02-20T10:44:12.825Z,10.73
2024-02-20T10:46:41.767Z,10.66
2024-02-20T10:49:19.621Z,10.62
2024-02-20T10:51:49.362Z,10.59
2024-02-20T10:54:22.550Z,10.62
2024-02-20T10:56:51.308Z,10.79
2024-02-20T10:59:20.479Z,10.84
2024-02-20T11:01:50.649Z,10.81
2024-02-20T11:04:18.769Z,10.81
2024-02-20T11:06:49.898Z,10.69
2024-02-20T11:09:17.398Z,10.78
2024-02-20T11:11:46.882Z,10.93
2024-02-20T11:14:25.468Z,11.15
2024-02-20T11:16:52.579Z,11.31
2024-02-20T11:19:27.224Z,11.05
2024-02-20T11:22:05.937Z,11.44
2024-02-20T11:24:38.024Z,11.20
2024-02-20T11:27:07.694Z,11.18
2024-02-20T11:29:39.595Z,11.41
2024-02-20T11:32:14.580Z,11.60
2024-02-20T11:34:41.950Z,11.33
2024-02-20T11:37:13.863Z,11.32
2024-02-20T11:39:45.714Z,11.47
2024-02-20T11:42:15.832Z,11.63
2024-02-20T11:44:45.457Z,11.86
2024-02-20T11:47:16.228Z,11.55
2024-02-20T11:49:43.681Z,11.79
2024-02-20T11:52:10.929Z,11.99
2024-02-20T11:54:38.463Z,12.12
2024-02-20T11:57:06.673Z,12.00
2024-02-20T11:59:35.606Z,12.02
2024-02-20T12:02:03.162Z,12.22
2024-02-20T12:04:30.799Z,12.44
2024-02-20T12:07:09.597Z,12.36
2024-02-20T12:09:38.198Z,12.10
2024-02-20T12:12:06.323Z,12.24
2024-02-20T12:14:33.513Z,12.29
2024-02-20T12:17:04.021Z,12.22
2024-02-20T12:19:32.734Z,12.13
2024-02-20T12:22:03.194Z,12.47
2024-02-20T12:24:30.807Z,12.32
2024-02-20T12:26:59.473Z,12.58
2024-02-20T12:29:27.141Z,12.33
2024-02-20T12:31:54.556Z,12.46
2024-02-20T12:34:26.443Z,12.50
2024-02-20T12:36:58.850Z,12.67
2024-02-20T12:39:26.481Z,12.66
2024-02-20T12:41:54.028Z,12.43
2024-02-20T12:44:20.985Z,12.21
2024-02-20T12:46:47.935Z,12.33
2024-02-20T12:49:15.289Z,12.38
2024-02-20T12:51:43.988Z,12.15
2024-02-20T12:54:11.257Z,12.26
2024-02-20T12:56:38.766Z,12.43
2024-02-20T12:59:05.922Z,12.44
2024-02-20T13:01:33.205Z,12.38
2024-02-20T13:04:00.743Z,12.22
2024-02-20T13:06:29.403Z,12.19
2024-02-20T13:08:58.534Z,12.14
2024-02-20T13:11:27.807Z,11.92
2024-02-20T13:13:56.533Z,12.08
2024-02-20T13:16:26.272Z,12.08
2024-02-20T13:18:55.989Z,12.01
2024-02-20T13:21:23.616Z,11.85
2024-02-20T13:23:53.295Z,11.88
2024-02-20T13:26:21.986Z,11.67
2024-02-20T13:28:49.275Z,11.76
2024-02-20T13:31:17.216Z,11.76
2024-02-20T13:33:44.912Z,11.73
2024-02-20T13:36:15.092Z,11.86
2024-02-20T13:38:43.778Z,11.61
2024-02-20T13:41:12.814Z,11.66
2024-02-20T13:43:44.518Z,11.79
2024-02-20T13:46:12.129Z,11.77
2024-02-20T13:48:42.173Z,11.85
2024-02-20T13:51:09.586Z,11.62
2024-02-20T13:53:36.805Z,11.81
2024-02-20T13:56:05.108Z,11.84
2024-02-20T13:58:33.241Z,11.68
2024-02-20T14:01:02.015Z,11.46
2024-02-20T14:03:32.360Z,11.37
2024-02-20T14:06:00.177Z,11.56
2024-02-20T14:08:27.468Z,11.61
2024-02-20T14:10:54.970Z,11.70
2024-02-20T14:13:23.998Z,11.70
2024-02-20T14:15:54.895Z,11.64
2024-02-20T14:18:26.593Z,11.63
2024-02-20T14:20:58.992Z,11.55
2024-02-20T14:23:26.585Z,11.74
2024-02-20T14:25:54.073Z,11.45
2024-02-20T14:28:21.958Z,11.63
2024-02-20T14:30:54.147Z,11.70
2024-02-20T14:33:31.282Z,11.44
2024-02-20T14:35:59.210Z,11.51
2024-02-20T14:38:27.831Z,11.53
2024-02-20T14:40:55.930Z,11.44
2024-02-20T14:43:23.186Z,11.57
2024-02-20T14:45:51.098Z,11.21
2024-02-20T14:48:18.667Z,11.47
2024-02-20T14:50:47.519Z,11.42
2024-02-20T14:53:15.018Z,11.46
2024-02-20T14:55:43.581Z,11.47
2024-02-20T14:58:12.088Z,11.30
2024-02-20T15:00:41.100Z,11.36
2024-02-20T15:03:14.233Z,11.37
2024-02-20T15:05:41.558Z,11.23
2024-02-20T15:08:10.685Z,11.32
2024-02-20T15:10:38.011Z,11.30
2024-02-20T15:13:05.715Z,11.24
2024-02-20T15:15:35.286Z,11.35
2024-02-20T15:18:04.916Z,11.38
2024-02-20T15:20:34.454Z,11.25
2024-02-20T15:23:01.881Z,11.31
2024-02-20T15:25:30.757Z,11.18
2024-02-20T15:27:59.449Z,11.12
2024-02-20T15:30:26.670Z,11.12
2024-02-20T15:32:54.037Z,11.21
2024-02-20T15:35:25.112Z,11.15
2024-02-20T15:37:52.807Z,11.03
2024-02-20T15:40:20.477Z,11.14
2024-02-20T15:42:51.410Z,11.16
2024-02-20T15:45:18.877Z,11.09
2024-02-20T15:47:46.301Z,11.15
2024-02-20T15:50:13.687Z,11.00
2024-02-20T15:52:42.496Z,11.07
2024-02-20T15:55:12.097Z,10.98
2024-02-20T15:57:41.140Z,11.00
2024-02-20T16:00:13.225Z,11.07
2024-02-20T16:02:40.964Z,11.01
2024-02-20T16:05:09.829Z,11.06
2024-02-20T16:07:37.271Z,11.08
2024-02-20T16:10:05.887Z,11.09
2024-02-20T16:12:37.771Z,11.14
2024-02-20T16:15:06.015Z,11.07
2024-02-20T16:17:39.499Z,11.06
2024-02-20T16:20:08.805Z,11.04
2024-02-20T16:22:36.089Z,11.00
2024-02-20T16:25:08.229Z,11.08
2024-02-20T16:27:35.685Z,11.07
2024-02-20T16:30:06.388Z,11.01
2024-02-20T16:32:35.250Z,11.07
2024-02-20T16:35:04.108Z,11.03
2024-02-20T16:37:32.148Z,11.00
2024-02-20T16:40:00.814Z,10.90
2024-02-20T16:42:30.283Z,10.93
2024-02-20T16:44:57.535Z,10.90
2024-02-20T16:47:25.122Z,10.94
2024-02-20T16:49:54.082Z,10.94
2024-02-20T16:52:21.749Z,10.91
2024-02-20T16:54:49.831Z,10.94
2024-02-20T16:57:18.741Z,10.99
2024-02-20T16:59:46.246Z,10.95
2024-02-20T17:02:14.663Z,10.91
2024-02-20T17:04:42.853Z,10.93
2024-02-20T17:07:12.608Z,10.88
2024-02-20T17:09:40.116Z,10.77
2024-02-20T17:12:07.898Z,10.81
2024-02-20T17:14:35.279Z,10.72
2024-02-20T17:17:06.803Z,10.75
2024-02-20T17:19:34.462Z,10.56
2024-02-20T17:22:02.901Z,10.58
2024-02-20T17:24:33.685Z,10.64
2024-02-20T17:27:00.994Z,10.59
2024-02-20T17:29:29.294Z,10.62
2024-02-20T17:32:00.005Z,10.62
2024-02-20T17:34:30.339Z,10.66
2024-02-20T17:37:01.938Z,10.55
2024-02-20T17:39:29.395Z,10.69
2024-02-20T17:41:57.792Z,10.50
2024-02-20T17:44:26.310Z,10.37
2024-02-20T17:46:54.468Z,10.34
2024-02-20T17:49:22.773Z,10.33
2024-02-20T17:51:51.406Z,10.30
2024-02-20T17:54:19.027Z,10.31
2024-02-20T17:56:46.312Z,10.20
2024-02-20T17:59:15.751Z,10.27
2024-02-20T18:01:43.092Z,10.20
2024-02-20T18:04:10.539Z,10.16
2024-02-20T18:06:40.454Z,10.21
2024-02-20T18:09:09.025Z,10.20
2024-02-20T18:11:37.005Z,10.32
2024-02-20T18:14:05.124Z,10.33
2024-02-20T18:16:37.999Z,10.30
2024-02-20T18:19:05.796Z,10.36
2024-02-20T18:21:33.755Z,10.38
2024-02-20T18:24:01.325Z,10.37
2024-02-20T18:26:31.560Z,10.29
2024-02-20T18:28:59.383Z,10.31
2024-02-20T18:31:26.835Z,10.36
2024-02-20T18:33:56.083Z,10.40
2024-02-20T18:36:23.452Z,10.31
2024-02-20T18:38:51.173Z,10.43
2024-02-20T18:41:19.178Z,10.34
2024-02-20T18:43:47.342Z,10.42
2024-02-20T18:46:16.683Z,10.46
2024-02-20T18:48:43.847Z,10.40
2024-02-20T18:51:12.564Z,10.43
2024-02-20T18:53:41.785Z,10.50
2024-02-20T18:56:09.118Z,10.50
2024-02-20T18:58:36.509Z,10.50
2024-02-20T19:01:03.779Z,10.57
2024-02-20T19:03:31.192Z,10.59
2024-02-20T19:05:59.827Z,10.56
2024-02-20T19:08:34.580Z,10.56
2024-02-20T19:11:04.337Z,10.55
2024-02-20T19:13:31.549Z,10.59
2024-02-20T19:15:59.679Z,10.63
2024-02-20T19:18:27.758Z,10.59
2024-02-20T19:20:54.971Z,10.54
2024-02-20T19:23:23.825Z,10.54
2024-02-20T19:25:52.745Z,10.61
2024-02-20T19:28:19.938Z,10.62
2024-02-20T19:30:47.362Z,10.58
2024-02-20T19:33:17.115Z,10.61
2024-02-20T19:35:44.726Z,10.60
2024-02-20T19:38:12.188Z,10.70
2024-02-20T19:40:40.827Z,10.65
2024-02-20T19:43:09.838Z,10.64
2024-02-20T19:45:37.068Z,10.66
2024-02-20T19:48:06.270Z,10.63
2024-02-20T19:50:37.029Z,10.63
2024-02-20T19:53:07.409Z,10.70
2024-02-20T19:55:35.032Z,10.61
2024-02-20T19:58:02.376Z,10.67
2024-02-20T20:00:32.785Z,10.68
2024-02-20T20:03:02.327Z,10.69
2024-02-20T20:05:29.828Z,10.68
2024-02-20T20:07:57.555Z,10.64
2024-02-20T20:10:26.191Z,10.72
2024-02-20T20:12:56.490Z,10.74
2024-02-20T20:15:24.745Z,10.72
2024-02-20T20:17:53.349Z,10.75
2024-02-20T20:20:22.828Z,10.68
2024-02-20T20:22:52.966Z,10.75
2024-02-20T20:25:22.615Z,10.70
2024-02-20T20:27:50.071Z,10.69
2024-02-20T20:30:19.120Z,10.72
2024-02-20T20:32:48.168Z,10.67
2024-02-20T20:35:17.294Z,10.75
2024-02-20T20:37:47.730Z,10.78
2024-02-20T20:40:15.637Z,10.74
2024-02-20T20:42:46.355Z,10.75
2024-02-20T20:45:13.701Z,10.72
2024-02-20T20:47:41.338Z,10.70
2024-02-20T20:50:11.527Z,10.59
2024-02-20T20:52:40.226Z,10.68
2024-02-20T20:55:11.152Z,10.75
2024-02-20T20:57:39.278Z,10.65
2024-02-20T21:00:07.581Z,10.64
2024-02-20T21:02:37.487Z,10.60
2024-02-20T21:05:05.704Z,10.62
2024-02-20T21:07:32.933Z,10.60
2024-02-20T21:10:02.133Z,10.56
2024-02-20T21:12:29.460Z,10.66
2024-02-20T21:14:57.166Z,10.59
2024-02-20T21:17:24.653Z,10.64
2024-02-20T21:19:51.717Z,10.61
2024-02-20T21:22:19.842Z,10.59
2024-02-20T21:24:47.394Z,10.55
2024-02-20T21:27:17.194Z,10.57
2024-02-20T21:29:45.270Z,10.50
2024-02-20T21:32:13.859Z,10.47
2024-02-20T21:34:41.378Z,10.48
2024-02-20T21:37:08.851Z,10.48
2024-02-20T21:39:36.517Z,10.49
2024-02-20T21:42:04.091Z,10.48
2024-02-20T21:44:32.924Z,10.54
2024-02-20T21:47:00.551Z,10.48
2024-02-20T21:49:27.907Z,10.46
2024-02-20T21:51:55.182Z,10.41
2024-02-20T21:54:23.516Z,10.51
2024-02-20T21:56:51.637Z,10.38
2024-02-20T21:59:19.924Z,10.42
2024-02-20T22:01:49.699Z,10.39
2024-02-20T22:04:17.540Z,10.32
2024-02-20T22:06:45.109Z,10.41
2024-02-20T22:09:12.789Z,10.40
2024-02-20T22:11:41.607Z,10.45
2024-02-20T22:14:12.056Z,10.39
2024-02-20T22:16:41.991Z,10.35
2024-02-20T22:19:13.342Z,10.33
2024-02-20T22:21:40.738Z,10.27
2024-02-20T22:24:08.896Z,10.23
2024-02-20T22:26:37.940Z,10.21
2024-02-20T22:29:05.541Z,10.18
2024-02-20T22:31:34.597Z,10.06
2024-02-20T22:34:01.859Z,10.09
2024-02-20T22:36:30.668Z,10.11
2024-02-20T22:38:58.036Z,10.16
2024-02-20T22:41:28.914Z,10.09
2024-02-20T22:43:56.631Z,10.10
2024-02-20T22:46:24.164Z,10.02
2024-02-20T22:48:51.760Z,10.01
2024-02-20T22:51:19.104Z,10.10
2024-02-20T22:53:47.791Z,10.16
2024-02-20T22:56:16.100Z,10.16
2024-02-20T22:58:43.698Z,10.12
2024-02-20T23:01:11.326Z,10.17
2024-02-20T23:03:40.836Z,10.20
2024-02-20T23:06:08.222Z,10.15
2024-02-20T23:08:35.801Z,10.10
2024-02-20T23:11:05.090Z,10.19
2024-02-20T23:13:32.543Z,10.21
2024-02-20T23:15:59.776Z,10.21
2024-02-20T23:18:27.048Z,10.19
2024-02-20T23:20:54.286Z,10.23
2024-02-20T23:23:21.672Z,10.28
2024-02-20T23:25:49.053Z,10.26
2024-02-20T23:28:18.590Z,10.35
2024-02-20T23:30:46.310Z,10.29
2024-02-20T23:33:13.560Z,10.25
2024-02-20T23:35:41.077Z,10.28
2024-02-20T23:38:08.605Z,10.30
2024-02-20T23:40:35.920Z,10.37
2024-02-20T23:43:03.324Z,10.26
2024-02-20T23:45:33.330Z,10.31
2024-02-20T23:48:00.717Z,10.34
2024-02-20T23:50:31.414Z,10.37
2024-02-20T23:52:58.748Z,10.32
2024-02-20T23:55:26.215Z,10.37
2024-02-20T23:57:53.567Z,10.40
